Coeburn, VA (24230)

5:58 PM EDT on June 03, 2015 (GMT -0400)
RAWS | | Change Station
CLOSE
Current Station
Personal Weather Station
Location: Wise, VA
Elevation: 2529 ft
Nearby Weather Stations

Elev 2529 ft 36.97 °N, 82.56 °W | Updated 47 minutes ago

Overcast
Overcast
64 °F
Feels Like 64 °F
N
1
Wind Variable Wind from East
Gusts 11.0 mph

Today
High -- | Low -- °F
--% Chance of Precip.
Yesterday
High -- | Low -- °F
Precip. -- in
6:11 AM 8:44 PM
Full, 98% visible
Pressure 30.08 in
Visibility 10.0 miles
Clouds Scattered Clouds 4100 ft
Mostly Cloudy 8000 ft
Overcast 10000 ft
Dew Point 61 °F
Humidity 90%
Rainfall in
Snow Depth Not available.
UV 1 out of 12
Pollen 4.00 out of 12
Air Quality Not available.
Flu Activity Sporadic
METAR KLNP 032135Z AUTO 01005KT 10SM -RA SCT041 BKN080 OVC100 18/15 A3008 RMK AO2 LTG DSNT N S AND W

More Conditions Fewer Conditions

Pressure 30.08 in
Visibility 10.0 miles
Clouds Scattered Clouds 4100 ft
Mostly Cloudy 8000 ft
Overcast 10000 ft
Dew Point 61 °F
Humidity 90%
Rainfall in
Snow Depth Not available.
UV 1 out of 12
Pollen 4.00 out of 12
Air Quality Not available.
Flu Activity Sporadic
METAR KLNP 032135Z AUTO 01005KT 10SM -RA SCT041 BKN080 OVC100 18/15 A3008 RMK AO2 LTG DSNT N S AND W

More Conditions Fewer Conditions

10-Day Weather Forecast

×

Almanac

Astronomy

Jun. 03, 2015 Rise Set
Actual Time
Civil Twilight
Nautical Twilight
Astronomical Twilight
Moon
Length of Visible Light
Length of Day
Tomorrow will be .
, % of the Moon is Illuminated

Today's Extremes

State Highs State Lows

Community

WunderPhotos

Upload Photos

1,826,291 photos uploaded!

WunderBlogs® & News

Nearby

Air Quality

  Air Quality AQ Index Pollutant
Not available.

Snow Depth

Station Depth Elevation

Earthquake Activity

City Distance Mag. Time & Date
Minimum magnitude displayed is 2.5.

Coastal Water Temperatures

Place Temperature

Stations

Nearby Weather Stations

Station Location Temp. Windchill Dew Point Humidity Wind Precip. Elev Updated Type